< < Back
Terminal Aerodrome Forecast


Current Version              Previous Versions:   1  2  3  4  5  6  7  8  9  

Terminal Aerodrome Forecast

641
FTUS42 KILM 182300
TAFFLO
TAF
KFLO 182331Z 1900/1924 30005KT P6SM SKC
     FM190100 35009KT P6SM BKN060
     FM190500 35006KT P6SM FEW080
     FM191300 01010G19KT P6SM SKC
     FM191600 01007KT P6SM SKC=

Latest METAR

012
SAUS70 KWBC 200300 RRF
MTRFLO
METAR KFLO 200253Z AUTO 00000KT 10SM CLR 10/08 A3013 RMK AO2 SLP201
T01000083 51009


USA.gov is the U.S. government's official web portal to all federal, state and local government web resources and services.